Time;durP1;ratioP1;P1;durP2;ratioP2;P2;SDS_P1;SDS_P2;PMS_P1;PMS_P2;Temp;Humidity;BMP_temperature;BMP_pressure;BME280_temperature;BME280_humidity;BME280_pressure;Samples;Min_cycle;Max_cycle;Signal;HPM_P1;HPM_P2
2021/01/16 00:00:57;;;;;;;0.68;0.68;;;;;;;;;;5021171;28;20198;-65
2021/01/16 00:03:23;;;;;;;1.98;1.73;;;;;;;;;;5021035;28;20204;-66
2021/01/16 00:05:50;;;;;;;2.13;2.03;;;;;;;;;;5022608;28;20231;-66
2021/01/16 00:08:17;;;;;;;1.48;1.38;;;;;;;;;;5020264;28;20602;-65
2021/01/16 00:10:44;;;;;;;1.58;1.52;;;;;;;;;;5020469;28;20169;-65
2021/01/16 00:13:17;;;;;;;2.10;1.95;;;;;;;;;;5023740;28;20200;-64
2021/01/16 00:15:43;;;;;;;3.67;3.50;;;;;;;;;;5042379;28;20196;-66
2021/01/16 00:18:13;;;;;;;0.80;0.80;;;;;;;;;;5042800;28;20638;-65
2021/01/16 00:20:41;;;;;;;1.92;1.83;;;;;;;;;;5031514;28;20261;-66
2021/01/16 00:23:07;;;;;;;2.53;2.40;;;;;;;;;;5026348;28;20552;-66
2021/01/16 00:25:34;;;;;;;1.92;1.92;;;;;;;;;;5022082;28;20280;-64
2021/01/16 00:28:00;;;;;;;1.75;1.42;;;;;;;;;;5020496;28;20839;-62
2021/01/16 00:30:28;;;;;;;1.80;1.75;;;;;;;;;;5022010;28;20195;-66
2021/01/16 00:32:54;;;;;;;1.15;1.15;;;;;;;;;;5018125;28;20178;-66
2021/01/16 00:35:20;;;;;;;1.92;1.80;;;;;;;;;;5021970;28;20648;-64
2021/01/16 00:37:47;;;;;;;2.08;1.98;;;;;;;;;;5021981;28;20187;-63
2021/01/16 00:40:15;;;;;;;1.25;1.25;;;;;;;;;;5022654;28;20564;-64
2021/01/16 00:42:45;;;;;;;4.10;1.90;;;;;;;;;;5022153;28;20169;-65
2021/01/16 00:45:11;;;;;;;1.75;1.65;;;;;;;;;;5011163;28;20201;-70
2021/01/16 00:47:38;;;;;;;1.50;1.48;;;;;;;;;;5011845;28;20252;-66
2021/01/16 00:50:08;;;;;;;1.75;1.65;;;;;;;;;;5010077;28;20184;-64
2021/01/16 00:52:34;;;;;;;1.58;1.48;;;;;;;;;;5011549;28;20184;-64
2021/01/16 00:55:00;;;;;;;2.45;2.35;;;;;;;;;;5011626;28;20696;-66
2021/01/16 00:57:27;;;;;;;2.22;2.13;;;;;;;;;;5028753;28;20204;-66
2021/01/16 00:59:54;;;;;;;1.35;1.35;;;;;;;;;;5029491;28;20200;-65
2021/01/16 01:02:20;;;;;;;5.55;3.40;;;;;;;;;;5021527;28;20527;-66
2021/01/16 01:04:46;;;;;;;3.20;3.00;;;;;;;;;;5011181;28;20247;-65
2021/01/16 01:07:13;;;;;;;1.70;1.70;;;;;;;;;;5010038;28;20276;-66
2021/01/16 01:09:40;;;;;;;4.55;4.25;;;;;;;;;;5012669;28;20177;-62
2021/01/16 01:12:06;;;;;;;2.00;1.92;;;;;;;;;;5015354;28;20699;-66
2021/01/16 01:14:33;;;;;;;1.83;1.73;;;;;;;;;;5015294;28;20220;-65
2021/01/16 01:16:59;;;;;;;2.08;2.03;;;;;;;;;;5017590;28;20223;-64
2021/01/16 01:19:25;;;;;;;0.80;0.80;;;;;;;;;;5027103;28;20212;-62
2021/01/16 01:21:51;;;;;;;2.97;2.78;;;;;;;;;;5031030;28;20230;-65
2021/01/16 01:24:17;;;;;;;2.40;2.33;;;;;;;;;;5033041;28;20176;-65
2021/01/16 01:26:43;;;;;;;1.15;1.08;;;;;;;;;;5033925;28;20181;-64
2021/01/16 01:29:09;;;;;;;2.30;2.00;;;;;;;;;;5034013;28;20177;-65
2021/01/16 01:31:38;;;;;;;2.28;2.08;;;;;;;;;;5034706;28;20254;-65
2021/01/16 01:34:04;;;;;;;0.95;0.95;;;;;;;;;;5034742;28;20173;-63
2021/01/16 01:36:30;;;;;;;2.90;2.70;;;;;;;;;;5034476;28;20718;-63
2021/01/16 01:38:56;;;;;;;1.05;1.05;;;;;;;;;;5034804;28;20696;-65
2021/01/16 01:41:22;;;;;;;1.48;1.38;;;;;;;;;;5034553;28;20230;-64
2021/01/16 01:43:49;;;;;;;2.42;2.25;;;;;;;;;;5034661;28;20180;-64
2021/01/16 01:46:15;;;;;;;1.60;1.50;;;;;;;;;;5034112;28;20245;-64
2021/01/16 01:48:42;;;;;;;1.27;1.17;;;;;;;;;;5033641;28;20176;-65
2021/01/16 01:51:09;;;;;;;2.90;2.35;;;;;;;;;;5033767;28;20180;-65
2021/01/16 01:53:36;;;;;;;2.88;2.67;;;;;;;;;;5026041;28;20679;-61
2021/01/16 01:56:03;;;;;;;1.63;1.63;;;;;;;;;;5023747;28;20568;-64
2021/01/16 01:58:30;;;;;;;1.50;1.45;;;;;;;;;;5022829;28;20169;-64
2021/01/16 02:00:57;;;;;;;1.95;1.90;;;;;;;;;;5020451;28;20231;-63
2021/01/16 02:03:24;;;;;;;2.30;2.20;;;;;;;;;;5024576;28;20232;-64
2021/01/16 02:05:53;;;;;;;1.73;1.63;;;;;;;;;;5021723;28;20208;-64
2021/01/16 02:08:19;;;;;;;0.85;0.85;;;;;;;;;;5021880;28;20169;-63
2021/01/16 02:10:45;;;;;;;1.50;1.50;;;;;;;;;;5022573;28;20596;-64
2021/01/16 02:13:11;;;;;;;1.35;1.33;;;;;;;;;;5023926;28;20211;-60
2021/01/16 02:15:56;;;;;;;0.80;0.80;;;;;;;;;;5021891;28;20224;-63
2021/01/16 02:18:22;;;;;;;2.45;2.35;;;;;;;;;;5022101;28;20177;-61
2021/01/16 02:20:48;;;;;;;0.70;0.70;;;;;;;;;;5021014;28;20571;-65
2021/01/16 02:23:31;;;;;;;2.47;2.38;;;;;;;;;;5023604;28;20182;-64
2021/01/16 02:26:15;;;;;;;4.45;4.20;;;;;;;;;;5023561;28;20243;-64
2021/01/16 02:29:02;;;;;;;1.92;1.42;;;;;;;;;;5022289;28;20181;-64
2021/01/16 02:31:37;;;;;;;3.30;3.20;;;;;;;;;;5023036;28;20660;-64
2021/01/16 02:34:05;;;;;;;2.10;2.03;;;;;;;;;;5022230;28;20262;-64
2021/01/16 02:36:34;;;;;;;1.05;1.05;;;;;;;;;;5023257;28;20569;-65
2021/01/16 02:39:19;;;;;;;2.08;1.98;;;;;;;;;;5021755;28;20203;-64
2021/01/16 02:42:04;;;;;;;1.40;1.40;;;;;;;;;;5021271;28;20201;-65
2021/01/16 02:44:39;;;;;;;1.13;1.13;;;;;;;;;;5022995;28;20246;-64
2021/01/16 02:47:10;;;;;;;3.92;1.95;;;;;;;;;;5022647;28;20223;-64
2021/01/16 02:52:15;;;;;;;3.35;1.52;;;;;;;;;;5048676;28;20265;-63
2021/01/16 02:54:42;;;;;;;1.77;1.67;;;;;;;;;;5050538;28;20558;-63
2021/01/16 02:57:09;;;;;;;1.70;1.65;;;;;;;;;;5052519;28;20227;-62
2021/01/16 02:59:55;;;;;;;0.82;0.82;;;;;;;;;;5052168;28;20174;-64
2021/01/16 03:02:22;;;;;;;1.08;1.08;;;;;;;;;;5042637;28;20181;-62
2021/01/16 03:04:48;;;;;;;1.50;1.40;;;;;;;;;;5041661;28;20196;-62
2021/01/16 03:07:16;;;;;;;0.90;0.90;;;;;;;;;;5041607;28;20671;-65
2021/01/16 03:09:42;;;;;;;2.70;2.58;;;;;;;;;;5042010;28;20523;-65
2021/01/16 03:12:09;;;;;;;1.45;1.35;;;;;;;;;;5043458;28;20183;-65
2021/01/16 03:14:36;;;;;;;3.97;1.60;;;;;;;;;;5041554;28;20200;-65
2021/01/16 03:17:09;;;;;;;1.05;1.05;;;;;;;;;;5040736;28;20743;-64
2021/01/16 03:19:35;;;;;;;4.60;4.05;;;;;;;;;;5034767;28;20196;-63
2021/01/16 03:22:06;;;;;;;1.85;1.85;;;;;;;;;;5032576;28;20177;-64
2021/01/16 03:24:32;;;;;;;1.85;1.73;;;;;;;;;;5032443;28;20204;-64
2021/01/16 03:26:58;;;;;;;2.25;2.08;;;;;;;;;;5031965;28;20188;-64
2021/01/16 03:29:24;;;;;;;3.55;3.30;;;;;;;;;;5032223;28;20712;-64
2021/01/16 03:31:50;;;;;;;1.65;1.55;;;;;;;;;;5032206;28;20199;-64
2021/01/16 03:34:16;;;;;;;2.08;1.98;;;;;;;;;;5032440;28;20641;-64
2021/01/16 03:36:42;;;;;;;2.47;2.35;;;;;;;;;;5032360;28;20179;-64
2021/01/16 03:39:08;;;;;;;1.67;1.57;;;;;;;;;;5032026;28;20644;-64
2021/01/16 03:41:34;;;;;;;2.03;1.93;;;;;;;;;;5030788;28;20463;-64
2021/01/16 03:44:00;;;;;;;2.88;2.78;;;;;;;;;;5032136;28;20404;-64
2021/01/16 03:46:26;;;;;;;1.85;1.75;;;;;;;;;;5032485;28;20203;-65
2021/01/16 03:48:52;;;;;;;2.30;2.20;;;;;;;;;;5031992;28;20176;-64
2021/01/16 03:51:18;;;;;;;1.33;1.27;;;;;;;;;;5032041;28;20583;-65
2021/01/16 03:53:44;;;;;;;3.03;2.83;;;;;;;;;;5032052;28;20404;-64
2021/01/16 03:56:10;;;;;;;2.58;2.42;;;;;;;;;;5031952;28;20173;-65
2021/01/16 03:58:36;;;;;;;2.20;1.95;;;;;;;;;;5031805;28;20186;-64
2021/01/16 04:01:02;;;;;;;3.40;3.20;;;;;;;;;;5031527;28;20598;-64
2021/01/16 04:03:28;;;;;;;1.33;1.33;;;;;;;;;;5030459;28;20451;-64
2021/01/16 04:05:54;;;;;;;1.15;1.15;;;;;;;;;;5031854;28;20250;-64
2021/01/16 04:08:21;;;;;;;3.13;2.95;;;;;;;;;;5031859;28;20383;-64
2021/01/16 04:10:47;;;;;;;0.90;0.90;;;;;;;;;;5031408;28;20188;-64
2021/01/16 04:13:13;;;;;;;4.38;2.03;;;;;;;;;;5031743;28;20201;-65
2021/01/16 04:15:39;;;;;;;4.45;4.18;;;;;;;;;;5031883;28;20227;-64
2021/01/16 04:18:05;;;;;;;5.80;4.60;;;;;;;;;;5031776;28;20415;-64
2021/01/16 04:20:31;;;;;;;2.58;2.50;;;;;;;;;;5031294;28;20556;-64
2021/01/16 04:22:57;;;;;;;1.67;1.58;;;;;;;;;;5031646;28;20178;-64
2021/01/16 04:25:23;;;;;;;2.50;2.40;;;;;;;;;;5031492;28;20184;-64
2021/01/16 04:27:49;;;;;;;1.27;1.20;;;;;;;;;;5031530;28;20775;-64
2021/01/16 04:30:15;;;;;;;2.30;2.20;;;;;;;;;;5031248;28;20195;-64
2021/01/16 04:32:41;;;;;;;3.38;3.17;;;;;;;;;;5031471;28;20414;-64
2021/01/16 04:35:07;;;;;;;0.70;0.70;;;;;;;;;;5031573;28;20179;-64
2021/01/16 04:37:33;;;;;;;3.20;3.00;;;;;;;;;;5030980;28;20632;-65
2021/01/16 04:39:59;;;;;;;1.30;1.30;;;;;;;;;;5031125;28;20211;-65
2021/01/16 04:42:25;;;;;;;2.47;1.73;;;;;;;;;;5031446;28;20176;-64
2021/01/16 04:44:51;;;;;;;4.30;2.80;;;;;;;;;;5036203;28;20272;-64
2021/01/16 04:47:23;;;;;;;3.47;3.28;;;;;;;;;;5038141;28;20200;-64
2021/01/16 04:49:50;;;;;;;2.17;2.08;;;;;;;;;;5037533;28;20187;-62
2021/01/16 04:52:24;;;;;;;2.45;2.20;;;;;;;;;;5037938;28;20182;-65
2021/01/16 04:54:51;;;;;;;1.08;1.08;;;;;;;;;;5037829;28;20190;-65
2021/01/16 04:57:17;;;;;;;2.42;2.28;;;;;;;;;;5037842;28;20180;-64
2021/01/16 04:59:43;;;;;;;2.17;2.08;;;;;;;;;;5037392;28;20208;-65
2021/01/16 05:02:10;;;;;;;1.10;1.05;;;;;;;;;;5037770;28;20263;-64
2021/01/16 05:04:38;;;;;;;3.03;2.92;;;;;;;;;;5037796;28;20188;-63
2021/01/16 05:07:05;;;;;;;1.92;1.83;;;;;;;;;;5037784;28;20169;-64
2021/01/16 05:09:32;;;;;;;3.00;2.40;;;;;;;;;;5037264;28;20249;-64
2021/01/16 05:12:05;;;;;;;2.47;2.40;;;;;;;;;;5037870;28;20212;-64
2021/01/16 05:14:36;;;;;;;2.47;2.28;;;;;;;;;;5037709;28;20258;-65
2021/01/16 05:17:03;;;;;;;1.73;1.63;;;;;;;;;;5037729;28;20169;-65
2021/01/16 05:19:33;;;;;;;1.20;1.20;;;;;;;;;;5037331;28;20200;-64
2021/01/16 05:22:00;;;;;;;5.20;3.50;;;;;;;;;;5037676;28;20243;-64
2021/01/16 05:24:26;;;;;;;2.50;2.38;;;;;;;;;;5037577;28;20168;-65
2021/01/16 05:26:54;;;;;;;2.22;1.63;;;;;;;;;;5037509;28;20540;-65
2021/01/16 05:29:22;;;;;;;2.25;2.15;;;;;;;;;;5037397;28;20210;-65
2021/01/16 05:31:49;;;;;;;2.42;2.10;;;;;;;;;;5037388;28;20204;-64
2021/01/16 05:34:15;;;;;;;3.90;3.70;;;;;;;;;;5037545;28;20180;-65
2021/01/16 05:36:45;;;;;;;1.27;1.25;;;;;;;;;;5037604;28;20260;-64
2021/01/16 05:39:12;;;;;;;1.23;1.23;;;;;;;;;;5037361;28;20177;-64
2021/01/16 05:41:38;;;;;;;2.28;1.40;;;;;;;;;;5037479;28;20595;-64
2021/01/16 05:44:04;;;;;;;0.70;0.70;;;;;;;;;;5037634;28;20564;-64
2021/01/16 05:46:30;;;;;;;4.25;2.80;;;;;;;;;;5037542;28;20578;-64
2021/01/16 05:48:56;;;;;;;2.78;2.58;;;;;;;;;;5036117;28;20196;-64
2021/01/16 05:51:23;;;;;;;1.45;1.45;;;;;;;;;;5037447;28;20239;-64
2021/01/16 05:53:49;;;;;;;2.40;1.70;;;;;;;;;;5037740;28;20214;-64
2021/01/16 05:56:16;;;;;;;2.25;1.90;;;;;;;;;;5033989;28;20179;-64
2021/01/16 05:58:44;;;;;;;1.95;1.88;;;;;;;;;;5034244;28;20181;-64
2021/01/16 06:01:20;;;;;;;2.45;1.52;;;;;;;;;;5034121;28;20283;-63
2021/01/16 06:03:50;;;;;;;1.67;1.58;;;;;;;;;;5034237;28;20212;-64
2021/01/16 06:06:16;;;;;;;2.05;1.42;;;;;;;;;;5032917;28;20175;-63
2021/01/16 06:08:55;;;;;;;1.63;1.52;;;;;;;;;;5034018;28;20167;-64
2021/01/16 06:11:22;;;;;;;2.83;2.72;;;;;;;;;;5034027;28;20239;-64
2021/01/16 06:13:49;;;;;;;1.88;1.77;;;;;;;;;;5033993;28;20176;-64
2021/01/16 06:16:16;;;;;;;1.48;1.10;;;;;;;;;;5034087;28;20176;-64
2021/01/16 06:18:45;;;;;;;2.47;2.40;;;;;;;;;;5034364;28;20183;-65
2021/01/16 06:21:11;;;;;;;4.60;4.28;;;;;;;;;;5033862;28;20297;-65
2021/01/16 06:23:39;;;;;;;4.65;2.17;;;;;;;;;;5034216;28;20229;-65
2021/01/16 06:26:07;;;;;;;2.15;1.50;;;;;;;;;;5034024;28;20173;-65
2021/01/16 06:28:40;;;;;;;1.58;1.52;;;;;;;;;;5033716;28;20172;-65
2021/01/16 06:31:21;;;;;;;2.47;2.38;;;;;;;;;;5033508;28;20239;-65
2021/01/16 06:33:55;;;;;;;1.95;1.85;;;;;;;;;;5033805;28;20187;-65
2021/01/16 06:36:25;;;;;;;2.70;2.50;;;;;;;;;;5033654;28;20180;-64
2021/01/16 06:38:56;;;;;;;2.80;2.70;;;;;;;;;;5033366;28;20517;-64
2021/01/16 06:41:27;;;;;;;1.83;1.73;;;;;;;;;;5033636;28;20215;-65
2021/01/16 06:43:53;;;;;;;1.38;1.38;;;;;;;;;;5033578;28;20172;-65
2021/01/16 06:46:19;;;;;;;1.95;1.95;;;;;;;;;;5033439;28;20520;-65
2021/01/16 06:48:46;;;;;;;4.35;3.13;;;;;;;;;;5033362;28;20186;-65
2021/01/16 06:51:33;;;;;;;1.92;1.83;;;;;;;;;;5033038;28;20702;-64
2021/01/16 06:54:05;;;;;;;1.25;1.25;;;;;;;;;;5033268;28;20230;-64
2021/01/16 06:56:33;;;;;;;3.47;2.70;;;;;;;;;;5033258;28;20241;-65
2021/01/16 06:59:00;;;;;;;1.45;1.45;;;;;;;;;;5032981;28;20176;-62
2021/01/16 07:01:30;;;;;;;1.45;1.45;;;;;;;;;;5033494;28;20200;-64
2021/01/16 07:03:58;;;;;;;2.13;2.13;;;;;;;;;;5033112;28;20665;-65
2021/01/16 07:06:24;;;;;;;2.22;2.13;;;;;;;;;;5032768;28;20204;-65
2021/01/16 07:08:51;;;;;;;1.57;1.57;;;;;;;;;;5032941;28;20283;-65
2021/01/16 07:11:17;;;;;;;1.83;1.83;;;;;;;;;;5033188;28;20434;-65
2021/01/16 07:13:43;;;;;;;1.90;1.80;;;;;;;;;;5032825;28;20555;-64
2021/01/16 07:16:10;;;;;;;1.10;1.10;;;;;;;;;;5032587;28;20184;-65
2021/01/16 07:18:36;;;;;;;3.00;2.90;;;;;;;;;;5032975;28;20213;-65
2021/01/16 07:21:03;;;;;;;1.65;1.65;;;;;;;;;;5031270;28;20216;-64
2021/01/16 07:23:29;;;;;;;3.00;2.80;;;;;;;;;;5032959;28;20190;-65
2021/01/16 07:25:55;;;;;;;1.58;1.48;;;;;;;;;;5032985;28;20179;-64
2021/01/16 07:28:22;;;;;;;2.95;2.85;;;;;;;;;;5032789;28;20594;-65
2021/01/16 07:30:49;;;;;;;2.70;2.50;;;;;;;;;;5032319;28;20278;-65
2021/01/16 07:33:15;;;;;;;2.35;1.80;;;;;;;;;;5032705;28;20247;-65
2021/01/16 07:35:46;;;;;;;2.60;1.85;;;;;;;;;;5032752;28;20190;-65
2021/01/16 07:38:14;;;;;;;1.33;1.33;;;;;;;;;;5032590;28;20177;-65
2021/01/16 07:40:42;;;;;;;1.90;1.83;;;;;;;;;;5032085;28;20570;-64
2021/01/16 07:43:31;;;;;;;2.38;1.92;;;;;;;;;;5032255;28;20180;-65
2021/01/16 07:45:59;;;;;;;2.83;2.72;;;;;;;;;;5024480;28;20266;-65
2021/01/16 07:48:30;;;;;;;1.42;1.40;;;;;;;;;;5032352;28;20169;-65
2021/01/16 07:50:56;;;;;;;1.55;1.45;;;;;;;;;;5029984;28;20216;-65
2021/01/16 07:53:26;;;;;;;3.30;3.05;;;;;;;;;;5031435;28;20180;-65
2021/01/16 07:56:02;;;;;;;1.08;1.08;;;;;;;;;;5031717;28;20549;-64
2021/01/16 07:58:34;;;;;;;2.83;2.53;;;;;;;;;;5031864;28;20181;-64
2021/01/16 08:01:01;;;;;;;0.85;0.85;;;;;;;;;;5031474;28;20780;-65
2021/01/16 08:03:41;;;;;;;2.60;1.67;;;;;;;;;;5031679;28;20241;-64
2021/01/16 08:06:13;;;;;;;1.48;1.48;;;;;;;;;;5031205;28;20198;-65
2021/01/16 08:08:53;;;;;;;1.88;1.77;;;;;;;;;;5031718;28;20211;-64
2021/01/16 08:11:22;;;;;;;0.80;0.80;;;;;;;;;;5031667;28;20199;-64
2021/01/16 08:13:51;;;;;;;1.70;1.70;;;;;;;;;;5031563;28;20172;-64
2021/01/16 08:16:18;;;;;;;0.93;0.93;;;;;;;;;;5031042;28;20180;-65
2021/01/16 08:18:47;;;;;;;2.80;2.10;;;;;;;;;;5030706;28;20208;-65
2021/01/16 08:21:14;;;;;;;2.50;2.40;;;;;;;;;;5033216;28;20235;-65
2021/01/16 08:23:48;;;;;;;1.73;1.73;;;;;;;;;;5051057;28;20176;-64
2021/01/16 08:26:14;;;;;;;1.80;1.50;;;;;;;;;;5050803;28;20172;-65
2021/01/16 08:28:43;;;;;;;2.75;2.53;;;;;;;;;;5050954;28;20713;-64
2021/01/16 08:31:09;;;;;;;1.25;1.25;;;;;;;;;;5050795;28;20199;-65
2021/01/16 08:33:35;;;;;;;1.33;1.20;;;;;;;;;;5050879;28;20204;-65
2021/01/16 08:36:17;;;;;;;2.78;2.13;;;;;;;;;;5050954;28;20686;-65
2021/01/16 08:38:44;;;;;;;2.58;2.47;;;;;;;;;;5050306;28;20260;-66
2021/01/16 08:41:10;;;;;;;1.75;1.65;;;;;;;;;;5044124;28;20201;-65
2021/01/16 08:43:40;;;;;;;3.28;2.10;;;;;;;;;;5031020;28;20172;-65
2021/01/16 08:46:14;;;;;;;2.72;1.92;;;;;;;;;;5042409;28;20226;-65
2021/01/16 08:48:41;;;;;;;3.78;2.17;;;;;;;;;;5050533;28;20181;-66
2021/01/16 08:51:26;;;;;;;1.25;1.25;;;;;;;;;;5051536;28;20662;-66
2021/01/16 08:54:05;;;;;;;3.40;3.15;;;;;;;;;;5050460;28;20257;-65
2021/01/16 08:56:31;;;;;;;1.48;1.48;;;;;;;;;;5051130;28;20210;-66
2021/01/16 08:58:57;;;;;;;20.02;1.92;;;;;;;;;;5050425;28;20214;-66
2021/01/16 09:01:24;;;;;;;1.60;1.60;;;;;;;;;;5050024;28;20234;-66
2021/01/16 09:04:10;;;;;;;1.88;1.77;;;;;;;;;;5050826;28;20227;-65
2021/01/16 09:06:36;;;;;;;2.33;2.00;;;;;;;;;;5050599;28;20205;-65
2021/01/16 09:09:02;;;;;;;1.67;1.63;;;;;;;;;;5049487;28;20171;-65
2021/01/16 09:11:28;;;;;;;2.92;2.75;;;;;;;;;;5050023;28;20202;-66
2021/01/16 09:13:54;;;;;;;1.73;1.63;;;;;;;;;;5050689;28;20551;-65
2021/01/16 09:16:30;;;;;;;1.50;1.50;;;;;;;;;;5037907;28;20458;-65
2021/01/16 09:18:57;;;;;;;2.05;2.05;;;;;;;;;;5029962;28;20182;-66
2021/01/16 09:21:24;;;;;;;2.50;2.50;;;;;;;;;;5030522;28;20213;-65
2021/01/16 09:23:50;;;;;;;3.22;2.95;;;;;;;;;;5030090;28;20161;-65
2021/01/16 09:26:23;;;;;;;1.35;1.20;;;;;;;;;;5029571;28;20647;-63
2021/01/16 09:28:57;;;;;;;2.00;1.92;;;;;;;;;;5029043;28;20172;-62
2021/01/16 09:31:33;;;;;;;2.30;2.20;;;;;;;;;;5030493;28;20200;-65
2021/01/16 09:34:01;;;;;;;1.08;1.08;;;;;;;;;;5033574;28;20168;-66
2021/01/16 09:36:42;;;;;;;1.38;1.38;;;;;;;;;;5034567;28;20656;-66
2021/01/16 09:39:18;;;;;;;2.25;2.15;;;;;;;;;;5033888;28;20179;-65
2021/01/16 09:41:45;;;;;;;2.33;2.22;;;;;;;;;;5034444;28;20236;-66
2021/01/16 09:44:11;;;;;;;2.10;1.98;;;;;;;;;;5034195;28;20208;-65
2021/01/16 09:46:44;;;;;;;1.73;1.42;;;;;;;;;;5041120;28;20660;-65
2021/01/16 09:49:11;;;;;;;1.23;1.23;;;;;;;;;;5053425;28;20223;-63
2021/01/16 09:51:37;;;;;;;2.67;2.58;;;;;;;;;;5052571;28;20203;-64
2021/01/16 09:54:10;;;;;;;1.33;1.23;;;;;;;;;;5043458;28;20177;-65
2021/01/16 09:56:47;;;;;;;1.38;1.38;;;;;;;;;;5033662;28;20595;-63
2021/01/16 09:59:14;;;;;;;2.10;2.08;;;;;;;;;;5052212;28;20203;-64
2021/01/16 10:01:41;;;;;;;1.40;1.40;;;;;;;;;;5053920;28;20207;-63
2021/01/16 10:04:20;;;;;;;1.77;1.63;;;;;;;;;;5053459;28;20644;-65
2021/01/16 10:06:46;;;;;;;1.42;1.33;;;;;;;;;;5053323;28;20524;-65
2021/01/16 10:09:20;;;;;;;3.28;3.08;;;;;;;;;;5052428;28;20177;-65
2021/01/16 10:11:46;;;;;;;1.40;1.40;;;;;;;;;;5033966;28;20200;-65
2021/01/16 10:14:16;;;;;;;2.22;2.05;;;;;;;;;;5033667;28;20234;-65
2021/01/16 10:16:44;;;;;;;1.88;1.88;;;;;;;;;;5033670;28;20184;-65
2021/01/16 10:19:12;;;;;;;1.50;1.40;;;;;;;;;;5032653;28;20416;-64
2021/01/16 10:21:58;;;;;;;3.13;2.65;;;;;;;;;;5033416;28;20197;-64
2021/01/16 10:24:25;;;;;;;0.77;0.77;;;;;;;;;;5033578;28;20203;-63
2021/01/16 10:26:51;;;;;;;1.73;1.63;;;;;;;;;;5033493;28;20183;-63
2021/01/16 10:29:22;;;;;;;1.25;1.25;;;;;;;;;;5032697;28;20165;-65
2021/01/16 10:31:48;;;;;;;1.48;1.42;;;;;;;;;;5048465;28;20207;-65
2021/01/16 10:34:15;;;;;;;1.10;1.10;;;;;;;;;;5032935;28;20173;-64
2021/01/16 10:36:41;;;;;;;0.80;0.80;;;;;;;;;;5043691;28;20259;-65
2021/01/16 10:39:10;;;;;;;1.55;1.45;;;;;;;;;;5038919;28;20688;-65
2021/01/16 10:41:37;;;;;;;1.25;1.25;;;;;;;;;;5032294;28;20213;-64
2021/01/16 10:44:09;;;;;;;1.13;1.13;;;;;;;;;;5047049;28;20200;-65
2021/01/16 10:46:48;;;;;;;1.65;1.38;;;;;;;;;;5032876;28;20173;-65
2021/01/16 10:49:30;;;;;;;1.02;1.02;;;;;;;;;;5032593;28;20214;-65
2021/01/16 10:52:01;;;;;;;0.88;0.88;;;;;;;;;;5036862;28;20303;-65
2021/01/16 10:54:27;;;;;;;1.92;1.83;;;;;;;;;;5050846;28;20524;-65
2021/01/16 10:57:01;;;;;;;1.40;1.40;;;;;;;;;;5051778;28;20236;-65
2021/01/16 10:59:28;;;;;;;2.25;2.15;;;;;;;;;;5051785;28;20531;-65
2021/01/16 11:01:54;;;;;;;1.70;1.60;;;;;;;;;;5051936;28;20212;-65
2021/01/16 11:04:25;;;;;;;1.55;1.45;;;;;;;;;;5051968;28;20176;-64
2021/01/16 11:06:53;;;;;;;0.70;0.70;;;;;;;;;;5033435;28;20172;-64
2021/01/16 11:09:34;;;;;;;1.30;1.30;;;;;;;;;;5032137;28;20169;-64
2021/01/16 11:12:04;;;;;;;1.20;1.15;;;;;;;;;;5032304;28;20219;-64
2021/01/16 11:14:33;;;;;;;2.67;2.45;;;;;;;;;;5031840;28;20173;-65
2021/01/16 11:17:01;;;;;;;0.63;0.63;;;;;;;;;;5031985;28;20187;-64
2021/01/16 11:19:31;;;;;;;0.70;0.70;;;;;;;;;;5031898;28;20177;-65
2021/01/16 11:21:57;;;;;;;0.85;0.85;;;;;;;;;;5032128;28;20215;-64
2021/01/16 11:24:42;;;;;;;2.05;1.15;;;;;;;;;;5032766;28;20230;-65
2021/01/16 11:27:12;;;;;;;2.15;2.05;;;;;;;;;;5031791;28;20540;-65
2021/01/16 11:29:42;;;;;;;0.98;0.98;;;;;;;;;;5031768;28;20169;-64
2021/01/16 11:32:13;;;;;;;1.38;1.35;;;;;;;;;;5030990;28;20238;-65
2021/01/16 11:35:03;;;;;;;0.65;0.65;;;;;;;;;;5031735;28;20173;-65
2021/01/16 11:37:47;;;;;;;0.50;0.50;;;;;;;;;;5021583;28;20642;-65
2021/01/16 11:40:24;;;;;;;0.85;0.85;;;;;;;;;;5031851;28;20223;-64
2021/01/16 11:42:54;;;;;;;0.60;0.60;;;;;;;;;;5032418;28;20548;-64
2021/01/16 11:45:21;;;;;;;1.23;1.13;;;;;;;;;;5032084;28;20183;-64
2021/01/16 11:47:51;;;;;;;1.38;1.38;;;;;;;;;;5031495;28;20169;-65
2021/01/16 11:50:18;;;;;;;1.15;1.15;;;;;;;;;;5030141;28;20209;-64
2021/01/16 11:52:44;;;;;;;1.95;1.23;;;;;;;;;;5031776;28;20184;-65
2021/01/16 11:55:10;;;;;;;1.38;1.38;;;;;;;;;;5031234;28;20548;-65
2021/01/16 11:57:36;;;;;;;0.90;0.90;;;;;;;;;;5031797;28;20175;-65
2021/01/16 12:00:03;;;;;;;0.50;0.50;;;;;;;;;;5034539;28;20193;-65
2021/01/16 12:02:29;;;;;;;1.33;1.23;;;;;;;;;;5048564;28;20437;-64
2021/01/16 12:04:55;;;;;;;1.08;1.08;;;;;;;;;;5051539;28;20176;-65
2021/01/16 12:07:22;;;;;;;1.05;1.05;;;;;;;;;;5051381;28;20172;-65
2021/01/16 12:09:48;;;;;;;0.80;0.80;;;;;;;;;;5050786;28;20168;-65
2021/01/16 12:12:14;;;;;;;1.05;1.05;;;;;;;;;;5051256;28;20178;-65
2021/01/16 12:14:42;;;;;;;1.85;1.15;;;;;;;;;;5051477;28;20180;-65
2021/01/16 12:17:09;;;;;;;1.33;1.33;;;;;;;;;;5051457;28;20717;-64
2021/01/16 12:19:36;;;;;;;1.35;1.35;;;;;;;;;;5051011;28;20206;-65
2021/01/16 12:22:02;;;;;;;1.13;0.95;;;;;;;;;;5050820;28;20196;-64
2021/01/16 12:24:28;;;;;;;1.85;1.85;;;;;;;;;;5051449;28;20255;-64
2021/01/16 12:26:57;;;;;;;3.42;1.67;;;;;;;;;;5051125;28;20204;-65
2021/01/16 12:29:29;;;;;;;3.80;2.95;;;;;;;;;;5050884;28;20653;-65
2021/01/16 12:32:06;;;;;;;3.00;2.10;;;;;;;;;;5050734;28;20681;-65
2021/01/16 12:34:33;;;;;;;1.13;1.13;;;;;;;;;;5051100;28;20183;-65
2021/01/16 12:36:59;;;;;;;0.80;0.80;;;;;;;;;;5050995;28;20172;-65
2021/01/16 12:39:26;;;;;;;1.92;1.88;;;;;;;;;;5050118;28;20176;-65
2021/01/16 12:41:57;;;;;;;1.30;1.20;;;;;;;;;;5049779;28;20290;-65
2021/01/16 12:44:23;;;;;;;3.08;2.88;;;;;;;;;;5049247;28;20646;-65
2021/01/16 12:46:51;;;;;;;2.67;2.58;;;;;;;;;;5050716;28;20574;-65
2021/01/16 12:49:18;;;;;;;1.10;1.10;;;;;;;;;;5050676;28;20242;-64
2021/01/16 12:51:44;;;;;;;1.13;1.13;;;;;;;;;;5050707;28;20207;-65
2021/01/16 12:54:14;;;;;;;5.65;3.40;;;;;;;;;;5049481;28;20271;-65
2021/01/16 12:56:40;;;;;;;4.88;3.95;;;;;;;;;;5050579;28;20168;-64
2021/01/16 12:59:07;;;;;;;3.50;1.85;;;;;;;;;;5049128;28;20180;-65
2021/01/16 13:01:34;;;;;;;2.55;2.17;;;;;;;;;;5050773;28;20212;-65
2021/01/16 13:04:00;;;;;;;1.35;1.35;;;;;;;;;;5050725;28;20179;-65
2021/01/16 13:06:26;;;;;;;3.45;3.17;;;;;;;;;;5052029;28;20182;-65
2021/01/16 13:08:55;;;;;;;1.65;1.55;;;;;;;;;;5053265;28;20212;-64
2021/01/16 13:11:24;;;;;;;2.20;2.10;;;;;;;;;;5052070;28;20199;-65
2021/01/16 13:13:59;;;;;;;7.03;2.38;;;;;;;;;;5051323;28;20218;-65
2021/01/16 13:16:26;;;;;;;1.27;1.27;;;;;;;;;;5053786;28;20197;-64
2021/01/16 13:18:57;;;;;;;2.30;2.20;;;;;;;;;;5053271;28;20211;-64
2021/01/16 13:21:30;;;;;;;1.65;1.60;;;;;;;;;;5045063;28;20821;-65
2021/01/16 13:23:56;;;;;;;3.38;3.17;;;;;;;;;;5052887;28;20278;-65
2021/01/16 13:26:22;;;;;;;0.85;0.85;;;;;;;;;;5052301;28;20172;-65
2021/01/16 13:28:52;;;;;;;0.85;0.85;;;;;;;;;;5053768;28;20196;-64
2021/01/16 13:31:22;;;;;;;2.35;1.60;;;;;;;;;;5053970;28;20195;-65
2021/01/16 13:33:52;;;;;;;2.35;2.17;;;;;;;;;;5053771;28;20171;-65
2021/01/16 13:36:19;;;;;;;3.60;3.30;;;;;;;;;;5053831;28;20203;-65
2021/01/16 13:38:45;;;;;;;1.92;1.83;;;;;;;;;;5052965;28;20180;-65
2021/01/16 13:41:12;;;;;;;2.35;2.20;;;;;;;;;;5053715;28;20206;-65
2021/01/16 13:43:39;;;;;;;1.10;1.10;;;;;;;;;;5047298;28;20664;-65
2021/01/16 13:46:05;;;;;;;1.35;1.35;;;;;;;;;;5042139;28;20809;-65
2021/01/16 13:48:42;;;;;;;1.42;1.42;;;;;;;;;;5043324;28;20743;-65
2021/01/16 13:51:37;;;;;;;6.43;4.13;;;;;;;;;;5042567;28;20598;-65
2021/01/16 13:54:04;;;;;;;1.55;1.55;;;;;;;;;;5030308;28;20223;-63
2021/01/16 13:56:43;;;;;;;3.65;2.90;;;;;;;;;;5034519;28;20208;-63
2021/01/16 13:59:28;;;;;;;2.97;1.67;;;;;;;;;;5033945;28;20180;-63
2021/01/16 14:02:01;;;;;;;1.85;1.75;;;;;;;;;;5033446;28;20746;-64
2021/01/16 14:04:28;;;;;;;2.03;1.98;;;;;;;;;;5033887;28;20684;-64
2021/01/16 14:06:55;;;;;;;3.38;3.10;;;;;;;;;;5034270;28;20219;-64
2021/01/16 14:09:23;;;;;;;2.60;2.47;;;;;;;;;;5038322;28;20264;-64
2021/01/16 14:11:49;;;;;;;1.10;1.10;;;;;;;;;;5043745;28;20200;-64
2021/01/16 14:14:25;;;;;;;2.40;2.20;;;;;;;;;;5032763;28;20173;-64
2021/01/16 14:16:51;;;;;;;1.85;1.77;;;;;;;;;;5032692;28;20547;-63
2021/01/16 14:19:17;;;;;;;1.35;1.33;;;;;;;;;;5040455;28;20252;-65
2021/01/16 14:21:52;;;;;;;2.78;2.58;;;;;;;;;;5033814;28;20220;-65
2021/01/16 14:24:18;;;;;;;3.05;2.85;;;;;;;;;;5033093;28;20251;-64
2021/01/16 14:26:55;;;;;;;3.15;2.95;;;;;;;;;;5033475;28;20526;-65
2021/01/16 14:29:21;;;;;;;2.05;1.95;;;;;;;;;;5033030;28;20897;-65
2021/01/16 14:31:47;;;;;;;2.38;2.10;;;;;;;;;;5033006;28;20287;-65
2021/01/16 14:34:13;;;;;;;1.65;1.55;;;;;;;;;;5033251;28;20200;-65
2021/01/16 14:36:39;;;;;;;3.22;2.95;;;;;;;;;;5032852;28;20177;-65
2021/01/16 14:39:05;;;;;;;2.28;2.17;;;;;;;;;;5032900;28;20197;-65
2021/01/16 14:41:38;;;;;;;1.63;1.55;;;;;;;;;;5033251;28;20208;-65
2021/01/16 14:44:05;;;;;;;3.33;3.13;;;;;;;;;;5033341;28;20243;-66
2021/01/16 14:46:31;;;;;;;3.65;2.33;;;;;;;;;;5032404;28;20252;-64
2021/01/16 14:48:57;;;;;;;4.68;4.38;;;;;;;;;;5032778;28;20177;-64
2021/01/16 14:51:27;;;;;;;1.30;1.30;;;;;;;;;;5047840;22;20280;-66
2021/01/16 14:54:00;;;;;;;2.03;1.85;;;;;;;;;;5012245;28;20188;-65
2021/01/16 14:56:26;;;;;;;2.47;2.38;;;;;;;;;;5012470;28;20176;-65